sensor_id;sensor_type;location;lat;lon;timestamp;P1;durP1;ratioP1;P2;durP2;ratioP2
49412;SDS011;35493;50.276;9.372;2023-06-04T00:02:20;3.45;;;1.52;;
49412;SDS011;35493;50.276;9.372;2023-06-04T00:04:47;3.03;;;1.35;;
49412;SDS011;35493;50.276;9.372;2023-06-04T00:07:14;3.45;;;1.30;;
49412;SDS011;35493;50.276;9.372;2023-06-04T00:09:41;4.35;;;1.50;;
49412;SDS011;35493;50.276;9.372;2023-06-04T00:12:09;3.33;;;1.08;;
49412;SDS011;35493;50.276;9.372;2023-06-04T00:14:36;2.75;;;1.48;;
49412;SDS011;35493;50.276;9.372;2023-06-04T00:17:04;4.00;;;1.35;;
49412;SDS011;35493;50.276;9.372;2023-06-04T00:19:31;4.40;;;1.30;;
49412;SDS011;35493;50.276;9.372;2023-06-04T00:21:59;4.38;;;1.73;;
49412;SDS011;35493;50.276;9.372;2023-06-04T00:24:26;5.03;;;1.73;;
49412;SDS011;35493;50.276;9.372;2023-06-04T00:26:52;5.55;;;1.60;;
49412;SDS011;35493;50.276;9.372;2023-06-04T00:29:19;3.65;;;1.88;;
49412;SDS011;35493;50.276;9.372;2023-06-04T00:31:46;4.75;;;1.70;;
49412;SDS011;35493;50.276;9.372;2023-06-04T00:34:16;5.93;;;1.73;;
49412;SDS011;35493;50.276;9.372;2023-06-04T00:36:46;4.82;;;1.67;;
49412;SDS011;35493;50.276;9.372;2023-06-04T00:39:13;3.80;;;1.50;;
49412;SDS011;35493;50.276;9.372;2023-06-04T00:41:40;4.68;;;1.70;;
49412;SDS011;35493;50.276;9.372;2023-06-04T00:44:07;4.90;;;1.60;;
49412;SDS011;35493;50.276;9.372;2023-06-04T00:46:34;2.50;;;1.30;;
49412;SDS011;35493;50.276;9.372;2023-06-04T00:49:02;3.90;;;1.27;;
49412;SDS011;35493;50.276;9.372;2023-06-04T00:51:31;3.67;;;1.20;;
49412;SDS011;35493;50.276;9.372;2023-06-04T00:53:58;3.90;;;1.48;;
49412;SDS011;35493;50.276;9.372;2023-06-04T00:56:26;3.60;;;1.20;;
49412;SDS011;35493;50.276;9.372;2023-06-04T00:58:53;4.18;;;1.50;;
49412;SDS011;35493;50.276;9.372;2023-06-04T01:01:22;3.30;;;1.35;;
49412;SDS011;35493;50.276;9.372;2023-06-04T01:03:54;2.53;;;1.17;;
49412;SDS011;35493;50.276;9.372;2023-06-04T01:06:25;2.72;;;1.33;;
49412;SDS011;35493;50.276;9.372;2023-06-04T01:08:59;3.72;;;1.27;;
49412;SDS011;35493;50.276;9.372;2023-06-04T01:11:30;5.75;;;1.30;;
49412;SDS011;35493;50.276;9.372;2023-06-04T01:13:59;3.67;;;1.27;;
49412;SDS011;35493;50.276;9.372;2023-06-04T01:16:26;4.28;;;1.55;;
49412;SDS011;35493;50.276;9.372;2023-06-04T01:18:57;3.47;;;1.45;;
49412;SDS011;35493;50.276;9.372;2023-06-04T01:21:27;3.05;;;1.30;;
49412;SDS011;35493;50.276;9.372;2023-06-04T01:24:00;3.03;;;1.10;;
49412;SDS011;35493;50.276;9.372;2023-06-04T01:26:30;3.15;;;1.15;;
49412;SDS011;35493;50.276;9.372;2023-06-04T01:31:25;2.13;;;1.00;;
49412;SDS011;35493;50.276;9.372;2023-06-04T01:33:52;3.75;;;1.10;;
49412;SDS011;35493;50.276;9.372;2023-06-04T01:36:21;3.10;;;1.20;;
49412;SDS011;35493;50.276;9.372;2023-06-04T01:38:48;2.17;;;0.95;;
49412;SDS011;35493;50.276;9.372;2023-06-04T01:41:17;4.05;;;1.00;;
49412;SDS011;35493;50.276;9.372;2023-06-04T01:43:44;2.28;;;1.00;;
49412;SDS011;35493;50.276;9.372;2023-06-04T01:46:11;4.32;;;1.20;;
49412;SDS011;35493;50.276;9.372;2023-06-04T01:48:38;1.73;;;0.77;;
49412;SDS011;35493;50.276;9.372;2023-06-04T01:51:06;2.42;;;1.10;;
49412;SDS011;35493;50.276;9.372;2023-06-04T01:53:33;4.20;;;1.30;;
49412;SDS011;35493;50.276;9.372;2023-06-04T01:56:00;2.60;;;1.10;;
49412;SDS011;35493;50.276;9.372;2023-06-04T01:58:29;3.85;;;1.25;;
49412;SDS011;35493;50.276;9.372;2023-06-04T02:00:57;3.47;;;1.38;;
49412;SDS011;35493;50.276;9.372;2023-06-04T02:03:28;3.28;;;1.27;;
49412;SDS011;35493;50.276;9.372;2023-06-04T02:06:01;3.45;;;1.40;;
49412;SDS011;35493;50.276;9.372;2023-06-04T02:08:28;3.10;;;1.10;;
49412;SDS011;35493;50.276;9.372;2023-06-04T02:10:55;3.50;;;1.40;;
49412;SDS011;35493;50.276;9.372;2023-06-04T02:13:22;3.58;;;1.20;;
49412;SDS011;35493;50.276;9.372;2023-06-04T02:15:50;4.60;;;1.38;;
49412;SDS011;35493;50.276;9.372;2023-06-04T02:18:18;3.25;;;1.00;;
49412;SDS011;35493;50.276;9.372;2023-06-04T02:20:48;3.63;;;1.23;;
49412;SDS011;35493;50.276;9.372;2023-06-04T02:23:16;3.35;;;1.20;;
49412;SDS011;35493;50.276;9.372;2023-06-04T02:25:45;4.20;;;1.05;;
49412;SDS011;35493;50.276;9.372;2023-06-04T02:28:13;2.75;;;1.10;;
49412;SDS011;35493;50.276;9.372;2023-06-04T02:30:40;7.20;;;2.05;;
49412;SDS011;35493;50.276;9.372;2023-06-04T02:33:09;3.25;;;1.40;;
49412;SDS011;35493;50.276;9.372;2023-06-04T02:35:36;2.65;;;1.02;;
49412;SDS011;35493;50.276;9.372;2023-06-04T02:38:03;2.30;;;1.08;;
49412;SDS011;35493;50.276;9.372;2023-06-04T02:40:30;2.97;;;1.15;;
49412;SDS011;35493;50.276;9.372;2023-06-04T02:42:57;4.72;;;1.27;;
49412;SDS011;35493;50.276;9.372;2023-06-04T02:45:24;3.10;;;1.10;;
49412;SDS011;35493;50.276;9.372;2023-06-04T02:47:51;2.42;;;1.20;;
49412;SDS011;35493;50.276;9.372;2023-06-04T02:50:19;3.13;;;1.30;;
49412;SDS011;35493;50.276;9.372;2023-06-04T02:52:46;2.35;;;1.10;;
49412;SDS011;35493;50.276;9.372;2023-06-04T02:55:13;2.78;;;1.10;;
49412;SDS011;35493;50.276;9.372;2023-06-04T02:57:41;3.20;;;1.40;;
49412;SDS011;35493;50.276;9.372;2023-06-04T03:00:09;2.53;;;1.00;;
49412;SDS011;35493;50.276;9.372;2023-06-04T03:02:39;3.00;;;1.13;;
49412;SDS011;35493;50.276;9.372;2023-06-04T03:05:07;5.28;;;1.30;;
49412;SDS011;35493;50.276;9.372;2023-06-04T03:07:37;2.93;;;1.20;;
49412;SDS011;35493;50.276;9.372;2023-06-04T03:10:06;3.63;;;1.00;;
49412;SDS011;35493;50.276;9.372;2023-06-04T03:12:33;2.53;;;1.10;;
49412;SDS011;35493;50.276;9.372;2023-06-04T03:15:00;2.08;;;1.08;;
49412;SDS011;35493;50.276;9.372;2023-06-04T03:17:27;2.28;;;0.95;;
49412;SDS011;35493;50.276;9.372;2023-06-04T03:19:56;3.15;;;1.05;;
49412;SDS011;35493;50.276;9.372;2023-06-04T03:22:23;4.35;;;1.30;;
49412;SDS011;35493;50.276;9.372;2023-06-04T03:24:52;3.28;;;1.10;;
49412;SDS011;35493;50.276;9.372;2023-06-04T03:27:19;4.22;;;1.45;;
49412;SDS011;35493;50.276;9.372;2023-06-04T03:29:46;3.40;;;1.10;;
49412;SDS011;35493;50.276;9.372;2023-06-04T03:32:15;2.60;;;1.20;;
49412;SDS011;35493;50.276;9.372;2023-06-04T03:34:42;2.60;;;1.15;;
49412;SDS011;35493;50.276;9.372;2023-06-04T03:37:09;2.50;;;1.00;;
49412;SDS011;35493;50.276;9.372;2023-06-04T03:39:36;2.90;;;1.17;;
49412;SDS011;35493;50.276;9.372;2023-06-04T03:42:07;3.70;;;1.33;;
49412;SDS011;35493;50.276;9.372;2023-06-04T03:44:34;3.05;;;1.27;;
49412;SDS011;35493;50.276;9.372;2023-06-04T03:47:02;3.28;;;1.05;;
49412;SDS011;35493;50.276;9.372;2023-06-04T03:49:30;3.28;;;1.10;;
49412;SDS011;35493;50.276;9.372;2023-06-04T03:51:57;2.65;;;1.10;;
49412;SDS011;35493;50.276;9.372;2023-06-04T03:54:24;3.38;;;1.20;;
49412;SDS011;35493;50.276;9.372;2023-06-04T03:56:51;3.22;;;1.15;;
49412;SDS011;35493;50.276;9.372;2023-06-04T03:59:19;4.15;;;1.30;;
49412;SDS011;35493;50.276;9.372;2023-06-04T04:01:46;2.28;;;1.25;;
49412;SDS011;35493;50.276;9.372;2023-06-04T04:04:14;3.30;;;1.30;;
49412;SDS011;35493;50.276;9.372;2023-06-04T04:06:41;3.15;;;1.33;;
49412;SDS011;35493;50.276;9.372;2023-06-04T04:09:09;3.38;;;1.38;;
49412;SDS011;35493;50.276;9.372;2023-06-04T04:11:36;2.70;;;1.48;;
49412;SDS011;35493;50.276;9.372;2023-06-04T04:14:03;3.67;;;1.42;;
49412;SDS011;35493;50.276;9.372;2023-06-04T04:16:34;3.17;;;1.38;;
49412;SDS011;35493;50.276;9.372;2023-06-04T04:19:01;4.43;;;1.40;;
49412;SDS011;35493;50.276;9.372;2023-06-04T04:21:28;3.85;;;1.50;;
49412;SDS011;35493;50.276;9.372;2023-06-04T04:23:55;3.28;;;1.20;;
49412;SDS011;35493;50.276;9.372;2023-06-04T04:26:22;3.50;;;1.60;;
49412;SDS011;35493;50.276;9.372;2023-06-04T04:28:53;4.18;;;1.27;;
49412;SDS011;35493;50.276;9.372;2023-06-04T04:31:24;2.88;;;1.30;;
49412;SDS011;35493;50.276;9.372;2023-06-04T04:33:54;2.35;;;1.15;;
49412;SDS011;35493;50.276;9.372;2023-06-04T04:36:22;2.45;;;1.20;;
49412;SDS011;35493;50.276;9.372;2023-06-04T04:38:48;2.95;;;1.17;;
49412;SDS011;35493;50.276;9.372;2023-06-04T04:41:20;3.95;;;0.98;;
49412;SDS011;35493;50.276;9.372;2023-06-04T04:43:48;3.25;;;1.10;;
49412;SDS011;35493;50.276;9.372;2023-06-04T04:46:22;3.38;;;1.33;;
49412;SDS011;35493;50.276;9.372;2023-06-04T04:48:50;2.90;;;1.17;;
49412;SDS011;35493;50.276;9.372;2023-06-04T04:51:19;3.28;;;1.35;;
49412;SDS011;35493;50.276;9.372;2023-06-04T04:53:46;3.08;;;1.42;;
49412;SDS011;35493;50.276;9.372;2023-06-04T04:56:14;3.13;;;1.17;;
49412;SDS011;35493;50.276;9.372;2023-06-04T04:58:45;3.85;;;1.40;;
49412;SDS011;35493;50.276;9.372;2023-06-04T05:01:12;3.78;;;1.30;;
49412;SDS011;35493;50.276;9.372;2023-06-04T05:03:41;3.95;;;1.17;;
49412;SDS011;35493;50.276;9.372;2023-06-04T05:06:10;4.50;;;1.30;;
49412;SDS011;35493;50.276;9.372;2023-06-04T05:08:38;5.28;;;1.58;;
49412;SDS011;35493;50.276;9.372;2023-06-04T05:11:06;4.57;;;1.50;;
49412;SDS011;35493;50.276;9.372;2023-06-04T05:13:34;4.47;;;1.70;;
49412;SDS011;35493;50.276;9.372;2023-06-04T05:16:03;3.05;;;1.38;;
49412;SDS011;35493;50.276;9.372;2023-06-04T05:18:33;4.68;;;1.58;;
49412;SDS011;35493;50.276;9.372;2023-06-04T05:21:05;3.88;;;1.73;;
49412;SDS011;35493;50.276;9.372;2023-06-04T05:23:35;3.55;;;1.65;;
49412;SDS011;35493;50.276;9.372;2023-06-04T05:26:04;4.50;;;1.42;;
49412;SDS011;35493;50.276;9.372;2023-06-04T05:28:32;4.30;;;1.33;;
49412;SDS011;35493;50.276;9.372;2023-06-04T05:30:59;3.83;;;1.40;;
49412;SDS011;35493;50.276;9.372;2023-06-04T05:33:31;3.75;;;1.40;;
49412;SDS011;35493;50.276;9.372;2023-06-04T05:36:03;3.55;;;1.15;;
49412;SDS011;35493;50.276;9.372;2023-06-04T05:38:36;3.92;;;1.60;;
49412;SDS011;35493;50.276;9.372;2023-06-04T05:41:08;3.65;;;1.17;;
49412;SDS011;35493;50.276;9.372;2023-06-04T05:43:37;4.93;;;1.42;;
49412;SDS011;35493;50.276;9.372;2023-06-04T05:46:06;3.25;;;1.52;;
49412;SDS011;35493;50.276;9.372;2023-06-04T05:48:36;3.97;;;1.40;;
49412;SDS011;35493;50.276;9.372;2023-06-04T05:51:03;3.15;;;1.50;;
49412;SDS011;35493;50.276;9.372;2023-06-04T05:53:30;4.18;;;1.63;;
49412;SDS011;35493;50.276;9.372;2023-06-04T05:55:57;2.88;;;1.30;;
49412;SDS011;35493;50.276;9.372;2023-06-04T05:58:25;4.32;;;1.40;;
49412;SDS011;35493;50.276;9.372;2023-06-04T06:00:52;4.25;;;1.42;;
49412;SDS011;35493;50.276;9.372;2023-06-04T06:03:19;4.50;;;1.30;;
49412;SDS011;35493;50.276;9.372;2023-06-04T06:05:48;2.83;;;1.33;;
49412;SDS011;35493;50.276;9.372;2023-06-04T06:08:15;3.47;;;1.50;;
49412;SDS011;35493;50.276;9.372;2023-06-04T06:10:42;3.88;;;1.20;;
49412;SDS011;35493;50.276;9.372;2023-06-04T06:13:09;3.00;;;1.23;;
49412;SDS011;35493;50.276;9.372;2023-06-04T06:15:38;3.35;;;1.58;;
49412;SDS011;35493;50.276;9.372;2023-06-04T06:18:05;3.20;;;1.40;;
49412;SDS011;35493;50.276;9.372;2023-06-04T06:20:32;4.00;;;1.52;;
49412;SDS011;35493;50.276;9.372;2023-06-04T06:23:05;3.30;;;1.30;;
49412;SDS011;35493;50.276;9.372;2023-06-04T06:25:32;4.28;;;1.67;;
49412;SDS011;35493;50.276;9.372;2023-06-04T06:28:07;3.50;;;1.48;;
49412;SDS011;35493;50.276;9.372;2023-06-04T06:30:35;4.38;;;1.80;;
49412;SDS011;35493;50.276;9.372;2023-06-04T06:33:04;3.03;;;1.42;;
49412;SDS011;35493;50.276;9.372;2023-06-04T06:35:31;4.40;;;1.63;;
49412;SDS011;35493;50.276;9.372;2023-06-04T06:37:58;3.35;;;1.45;;
49412;SDS011;35493;50.276;9.372;2023-06-04T06:40:25;3.75;;;1.70;;
49412;SDS011;35493;50.276;9.372;2023-06-04T06:42:52;4.35;;;1.90;;
49412;SDS011;35493;50.276;9.372;2023-06-04T06:45:19;3.83;;;1.63;;
49412;SDS011;35493;50.276;9.372;2023-06-04T06:47:47;4.32;;;1.70;;
49412;SDS011;35493;50.276;9.372;2023-06-04T06:50:14;3.88;;;1.65;;
49412;SDS011;35493;50.276;9.372;2023-06-04T06:52:41;4.20;;;2.15;;
49412;SDS011;35493;50.276;9.372;2023-06-04T06:55:08;4.38;;;1.55;;
49412;SDS011;35493;50.276;9.372;2023-06-04T06:57:35;4.25;;;1.70;;
49412;SDS011;35493;50.276;9.372;2023-06-04T07:00:02;4.28;;;1.70;;
49412;SDS011;35493;50.276;9.372;2023-06-04T07:02:31;4.10;;;1.88;;
49412;SDS011;35493;50.276;9.372;2023-06-04T07:04:59;3.97;;;1.95;;
49412;SDS011;35493;50.276;9.372;2023-06-04T07:07:26;3.78;;;1.63;;
49412;SDS011;35493;50.276;9.372;2023-06-04T07:09:53;4.97;;;2.22;;
49412;SDS011;35493;50.276;9.372;2023-06-04T07:12:20;5.22;;;2.97;;
49412;SDS011;35493;50.276;9.372;2023-06-04T07:14:47;6.38;;;2.85;;
49412;SDS011;35493;50.276;9.372;2023-06-04T07:17:14;6.05;;;3.30;;
49412;SDS011;35493;50.276;9.372;2023-06-04T07:19:41;7.00;;;3.22;;
49412;SDS011;35493;50.276;9.372;2023-06-04T07:22:09;7.28;;;2.75;;
49412;SDS011;35493;50.276;9.372;2023-06-04T07:24:36;6.18;;;2.80;;
49412;SDS011;35493;50.276;9.372;2023-06-04T07:27:09;6.65;;;2.67;;
49412;SDS011;35493;50.276;9.372;2023-06-04T07:29:37;7.10;;;2.20;;
49412;SDS011;35493;50.276;9.372;2023-06-04T07:32:04;3.78;;;1.92;;
49412;SDS011;35493;50.276;9.372;2023-06-04T07:34:31;3.55;;;1.80;;
49412;SDS011;35493;50.276;9.372;2023-06-04T07:36:58;4.63;;;1.77;;
49412;SDS011;35493;50.276;9.372;2023-06-04T07:39:27;4.43;;;1.83;;
49412;SDS011;35493;50.276;9.372;2023-06-04T07:41:54;4.13;;;1.70;;
49412;SDS011;35493;50.276;9.372;2023-06-04T07:44:21;2.85;;;1.38;;
49412;SDS011;35493;50.276;9.372;2023-06-04T07:46:48;3.65;;;1.40;;
49412;SDS011;35493;50.276;9.372;2023-06-04T07:49:14;6.57;;;1.73;;
49412;SDS011;35493;50.276;9.372;2023-06-04T07:51:41;3.08;;;1.58;;
49412;SDS011;35493;50.276;9.372;2023-06-04T07:54:08;3.63;;;1.55;;
49412;SDS011;35493;50.276;9.372;2023-06-04T07:56:37;3.17;;;1.48;;
49412;SDS011;35493;50.276;9.372;2023-06-04T07:59:04;3.05;;;1.60;;
49412;SDS011;35493;50.276;9.372;2023-06-04T08:01:32;3.60;;;1.70;;
49412;SDS011;35493;50.276;9.372;2023-06-04T08:03:58;5.10;;;1.90;;
49412;SDS011;35493;50.276;9.372;2023-06-04T08:06:25;4.93;;;1.88;;
49412;SDS011;35493;50.276;9.372;2023-06-04T08:08:53;5.20;;;2.10;;
49412;SDS011;35493;50.276;9.372;2023-06-04T08:11:20;4.63;;;2.10;;
49412;SDS011;35493;50.276;9.372;2023-06-04T08:13:49;5.88;;;2.15;;
49412;SDS011;35493;50.276;9.372;2023-06-04T08:16:16;3.65;;;1.83;;
49412;SDS011;35493;50.276;9.372;2023-06-04T08:18:43;5.75;;;1.85;;
49412;SDS011;35493;50.276;9.372;2023-06-04T08:21:10;4.72;;;1.70;;
49412;SDS011;35493;50.276;9.372;2023-06-04T08:23:37;5.00;;;1.70;;
49412;SDS011;35493;50.276;9.372;2023-06-04T08:26:04;3.70;;;1.90;;
49412;SDS011;35493;50.276;9.372;2023-06-04T08:28:32;4.20;;;1.42;;
49412;SDS011;35493;50.276;9.372;2023-06-04T08:31:01;4.90;;;1.85;;
49412;SDS011;35493;50.276;9.372;2023-06-04T08:33:28;4.55;;;1.65;;
49412;SDS011;35493;50.276;9.372;2023-06-04T08:35:54;4.55;;;1.35;;
49412;SDS011;35493;50.276;9.372;2023-06-04T08:38:21;4.80;;;1.38;;
49412;SDS011;35493;50.276;9.372;2023-06-04T08:40:49;3.25;;;1.50;;
49412;SDS011;35493;50.276;9.372;2023-06-04T08:43:19;3.60;;;1.50;;
49412;SDS011;35493;50.276;9.372;2023-06-04T08:45:48;3.58;;;1.48;;
49412;SDS011;35493;50.276;9.372;2023-06-04T08:48:17;3.75;;;1.30;;
49412;SDS011;35493;50.276;9.372;2023-06-04T08:50:47;3.88;;;1.42;;
49412;SDS011;35493;50.276;9.372;2023-06-04T08:53:15;2.85;;;1.35;;
49412;SDS011;35493;50.276;9.372;2023-06-04T08:55:42;2.88;;;1.30;;
49412;SDS011;35493;50.276;9.372;2023-06-04T08:58:10;4.10;;;1.40;;
49412;SDS011;35493;50.276;9.372;2023-06-04T09:00:38;2.67;;;1.23;;
49412;SDS011;35493;50.276;9.372;2023-06-04T09:03:05;4.30;;;1.17;;
49412;SDS011;35493;50.276;9.372;2023-06-04T09:05:33;3.20;;;1.35;;
49412;SDS011;35493;50.276;9.372;2023-06-04T09:08:02;4.03;;;1.20;;
49412;SDS011;35493;50.276;9.372;2023-06-04T09:10:33;4.90;;;1.40;;
49412;SDS011;35493;50.276;9.372;2023-06-04T09:13:02;3.58;;;1.40;;
49412;SDS011;35493;50.276;9.372;2023-06-04T09:15:30;2.92;;;1.35;;
49412;SDS011;35493;50.276;9.372;2023-06-04T09:17:57;3.88;;;1.20;;
49412;SDS011;35493;50.276;9.372;2023-06-04T09:20:24;2.63;;;1.10;;
49412;SDS011;35493;50.276;9.372;2023-06-04T09:22:53;2.92;;;1.35;;
49412;SDS011;35493;50.276;9.372;2023-06-04T09:25:20;4.07;;;1.47;;
49412;SDS011;35493;50.276;9.372;2023-06-04T09:27:47;5.43;;;1.67;;
49412;SDS011;35493;50.276;9.372;2023-06-04T09:30:15;5.30;;;2.95;;
49412;SDS011;35493;50.276;9.372;2023-06-04T09:32:43;4.63;;;2.70;;
49412;SDS011;35493;50.276;9.372;2023-06-04T09:35:11;9.45;;;4.07;;
49412;SDS011;35493;50.276;9.372;2023-06-04T09:37:39;7.43;;;5.15;;
49412;SDS011;35493;50.276;9.372;2023-06-04T09:40:08;7.75;;;4.43;;
49412;SDS011;35493;50.276;9.372;2023-06-04T09:42:42;8.50;;;4.50;;
49412;SDS011;35493;50.276;9.372;2023-06-04T09:45:10;7.40;;;4.60;;
49412;SDS011;35493;50.276;9.372;2023-06-04T09:47:40;6.55;;;4.25;;
49412;SDS011;35493;50.276;9.372;2023-06-04T09:50:08;5.95;;;3.63;;
49412;SDS011;35493;50.276;9.372;2023-06-04T09:52:36;6.07;;;3.87;;
49412;SDS011;35493;50.276;9.372;2023-06-04T09:55:16;8.10;;;5.32;;
49412;SDS011;35493;50.276;9.372;2023-06-04T09:57:46;9.00;;;6.28;;
49412;SDS011;35493;50.276;9.372;2023-06-04T10:00:15;9.43;;;6.72;;
49412;SDS011;35493;50.276;9.372;2023-06-04T10:02:43;11.38;;;6.60;;
49412;SDS011;35493;50.276;9.372;2023-06-04T10:05:11;8.85;;;5.78;;
49412;SDS011;35493;50.276;9.372;2023-06-04T10:07:39;9.30;;;5.90;;
49412;SDS011;35493;50.276;9.372;2023-06-04T10:10:09;7.65;;;4.35;;
49412;SDS011;35493;50.276;9.372;2023-06-04T10:12:41;5.63;;;3.38;;
49412;SDS011;35493;50.276;9.372;2023-06-04T10:15:10;4.55;;;2.25;;
49412;SDS011;35493;50.276;9.372;2023-06-04T10:17:37;4.50;;;2.63;;
49412;SDS011;35493;50.276;9.372;2023-06-04T10:20:06;4.28;;;2.50;;
49412;SDS011;35493;50.276;9.372;2023-06-04T10:22:34;5.45;;;3.47;;
49412;SDS011;35493;50.276;9.372;2023-06-04T10:25:02;4.72;;;2.97;;
49412;SDS011;35493;50.276;9.372;2023-06-04T10:27:30;4.35;;;2.58;;
49412;SDS011;35493;50.276;9.372;2023-06-04T10:30:01;3.35;;;2.10;;
49412;SDS011;35493;50.276;9.372;2023-06-04T10:32:29;3.58;;;2.03;;
49412;SDS011;35493;50.276;9.372;2023-06-04T10:34:56;7.43;;;5.32;;
49412;SDS011;35493;50.276;9.372;2023-06-04T10:37:24;7.22;;;5.45;;
49412;SDS011;35493;50.276;9.372;2023-06-04T10:39:54;6.78;;;4.38;;
49412;SDS011;35493;50.276;9.372;2023-06-04T10:42:22;5.82;;;3.47;;
49412;SDS011;35493;50.276;9.372;2023-06-04T10:44:51;5.20;;;2.70;;
49412;SDS011;35493;50.276;9.372;2023-06-04T10:47:23;4.90;;;2.47;;
49412;SDS011;35493;50.276;9.372;2023-06-04T10:49:51;5.50;;;2.33;;
49412;SDS011;35493;50.276;9.372;2023-06-04T10:52:20;3.70;;;1.90;;
49412;SDS011;35493;50.276;9.372;2023-06-04T10:54:47;4.05;;;1.60;;
49412;SDS011;35493;50.276;9.372;2023-06-04T10:57:17;5.13;;;1.83;;
49412;SDS011;35493;50.276;9.372;2023-06-04T10:59:53;2.78;;;1.40;;
49412;SDS011;35493;50.276;9.372;2023-06-04T11:02:20;3.58;;;1.67;;
49412;SDS011;35493;50.276;9.372;2023-06-04T11:04:58;2.97;;;1.73;;
49412;SDS011;35493;50.276;9.372;2023-06-04T11:07:40;3.28;;;1.70;;
49412;SDS011;35493;50.276;9.372;2023-06-04T11:10:07;4.78;;;1.80;;
49412;SDS011;35493;50.276;9.372;2023-06-04T11:12:42;4.25;;;1.75;;
49412;SDS011;35493;50.276;9.372;2023-06-04T11:15:10;5.03;;;2.08;;
49412;SDS011;35493;50.276;9.372;2023-06-04T11:17:38;3.63;;;1.77;;
49412;SDS011;35493;50.276;9.372;2023-06-04T11:22:49;4.97;;;2.47;;
49412;SDS011;35493;50.276;9.372;2023-06-04T11:25:19;4.35;;;2.45;;
49412;SDS011;35493;50.276;9.372;2023-06-04T11:27:47;5.10;;;2.80;;
49412;SDS011;35493;50.276;9.372;2023-06-04T11:30:15;5.53;;;3.25;;
49412;SDS011;35493;50.276;9.372;2023-06-04T11:32:43;4.85;;;2.33;;
49412;SDS011;35493;50.276;9.372;2023-06-04T11:35:10;4.20;;;1.95;;
49412;SDS011;35493;50.276;9.372;2023-06-04T11:37:38;4.50;;;1.88;;
49412;SDS011;35493;50.276;9.372;2023-06-04T11:40:14;3.13;;;2.13;;
49412;SDS011;35493;50.276;9.372;2023-06-04T11:42:43;6.55;;;3.47;;
49412;SDS011;35493;50.276;9.372;2023-06-04T11:45:11;4.05;;;2.58;;
49412;SDS011;35493;50.276;9.372;2023-06-04T11:47:39;3.20;;;1.90;;
49412;SDS011;35493;50.276;9.372;2023-06-04T11:50:09;3.28;;;1.83;;
49412;SDS011;35493;50.276;9.372;2023-06-04T11:52:37;3.03;;;1.70;;
49412;SDS011;35493;50.276;9.372;2023-06-04T11:57:55;2.38;;;1.40;;
49412;SDS011;35493;50.276;9.372;2023-06-04T12:00:22;3.78;;;1.55;;
49412;SDS011;35493;50.276;9.372;2023-06-04T12:02:50;4.70;;;1.83;;
49412;SDS011;35493;50.276;9.372;2023-06-04T12:05:30;3.20;;;1.40;;
49412;SDS011;35493;50.276;9.372;2023-06-04T12:08:06;3.60;;;1.40;;
49412;SDS011;35493;50.276;9.372;2023-06-04T12:10:37;2.90;;;1.48;;
49412;SDS011;35493;50.276;9.372;2023-06-04T12:13:08;4.05;;;1.75;;
49412;SDS011;35493;50.276;9.372;2023-06-04T12:16:01;3.25;;;1.50;;
49412;SDS011;35493;50.276;9.372;2023-06-04T12:18:41;3.95;;;1.77;;
49412;SDS011;35493;50.276;9.372;2023-06-04T12:21:17;6.18;;;2.33;;
49412;SDS011;35493;50.276;9.372;2023-06-04T12:24:11;8.05;;;2.40;;
49412;SDS011;35493;50.276;9.372;2023-06-04T12:26:41;8.57;;;2.78;;
49412;SDS011;35493;50.276;9.372;2023-06-04T12:29:13;5.40;;;2.80;;
49412;SDS011;35493;50.276;9.372;2023-06-04T12:31:45;7.63;;;3.70;;
49412;SDS011;35493;50.276;9.372;2023-06-04T12:34:12;6.85;;;3.95;;
49412;SDS011;35493;50.276;9.372;2023-06-04T12:39:38;6.60;;;3.45;;
49412;SDS011;35493;50.276;9.372;2023-06-04T12:42:08;4.13;;;2.45;;
49412;SDS011;35493;50.276;9.372;2023-06-04T12:44:43;6.63;;;2.78;;
49412;SDS011;35493;50.276;9.372;2023-06-04T12:47:14;5.18;;;3.20;;
49412;SDS011;35493;50.276;9.372;2023-06-04T12:49:52;5.15;;;2.80;;
49412;SDS011;35493;50.276;9.372;2023-06-04T12:52:19;5.00;;;2.85;;
49412;SDS011;35493;50.276;9.372;2023-06-04T12:54:47;6.00;;;2.65;;
49412;SDS011;35493;50.276;9.372;2023-06-04T12:57:16;4.90;;;2.30;;
49412;SDS011;35493;50.276;9.372;2023-06-04T12:59:43;6.55;;;3.83;;
49412;SDS011;35493;50.276;9.372;2023-06-04T13:02:13;8.57;;;3.70;;
49412;SDS011;35493;50.276;9.372;2023-06-04T13:04:42;5.45;;;3.30;;
49412;SDS011;35493;50.276;9.372;2023-06-04T13:07:16;5.55;;;3.53;;
49412;SDS011;35493;50.276;9.372;2023-06-04T13:09:43;4.75;;;3.13;;
49412;SDS011;35493;50.276;9.372;2023-06-04T13:12:13;7.22;;;3.35;;
49412;SDS011;35493;50.276;9.372;2023-06-04T13:14:43;4.80;;;2.90;;
49412;SDS011;35493;50.276;9.372;2023-06-04T13:17:12;4.55;;;2.95;;
49412;SDS011;35493;50.276;9.372;2023-06-04T13:19:40;4.30;;;2.78;;
49412;SDS011;35493;50.276;9.372;2023-06-04T13:22:07;5.93;;;3.03;;
49412;SDS011;35493;50.276;9.372;2023-06-04T13:24:35;4.75;;;3.22;;
49412;SDS011;35493;50.276;9.372;2023-06-04T13:27:02;6.80;;;4.72;;
49412;SDS011;35493;50.276;9.372;2023-06-04T13:29:30;7.88;;;5.30;;
49412;SDS011;35493;50.276;9.372;2023-06-04T13:31:58;7.63;;;5.07;;
49412;SDS011;35493;50.276;9.372;2023-06-04T13:34:25;7.93;;;5.38;;
49412;SDS011;35493;50.276;9.372;2023-06-04T13:36:53;7.78;;;5.07;;
49412;SDS011;35493;50.276;9.372;2023-06-04T13:39:20;7.60;;;4.68;;
49412;SDS011;35493;50.276;9.372;2023-06-04T13:41:47;6.65;;;4.53;;
49412;SDS011;35493;50.276;9.372;2023-06-04T13:44:14;6.97;;;4.57;;
49412;SDS011;35493;50.276;9.372;2023-06-04T13:46:42;7.90;;;4.65;;
49412;SDS011;35493;50.276;9.372;2023-06-04T13:49:09;7.57;;;5.00;;
49412;SDS011;35493;50.276;9.372;2023-06-04T13:51:36;6.30;;;4.68;;
49412;SDS011;35493;50.276;9.372;2023-06-04T13:54:03;6.07;;;4.38;;
49412;SDS011;35493;50.276;9.372;2023-06-04T13:56:30;5.97;;;4.25;;
49412;SDS011;35493;50.276;9.372;2023-06-04T13:58:57;6.30;;;4.40;;
49412;SDS011;35493;50.276;9.372;2023-06-04T14:01:24;6.57;;;4.10;;
49412;SDS011;35493;50.276;9.372;2023-06-04T14:03:52;4.63;;;3.40;;
49412;SDS011;35493;50.276;9.372;2023-06-04T14:06:19;4.57;;;3.80;;
49412;SDS011;35493;50.276;9.372;2023-06-04T14:08:47;4.70;;;3.60;;
49412;SDS011;35493;50.276;9.372;2023-06-04T14:11:14;5.40;;;3.75;;
49412;SDS011;35493;50.276;9.372;2023-06-04T14:13:41;5.50;;;3.50;;
49412;SDS011;35493;50.276;9.372;2023-06-04T14:16:10;6.90;;;4.10;;
49412;SDS011;35493;50.276;9.372;2023-06-04T14:18:37;6.80;;;4.13;;
49412;SDS011;35493;50.276;9.372;2023-06-04T14:21:05;5.65;;;4.07;;
49412;SDS011;35493;50.276;9.372;2023-06-04T14:23:32;4.68;;;3.42;;
49412;SDS011;35493;50.276;9.372;2023-06-04T14:25:59;5.13;;;3.47;;
49412;SDS011;35493;50.276;9.372;2023-06-04T14:28:26;5.35;;;3.88;;
49412;SDS011;35493;50.276;9.372;2023-06-04T14:30:53;5.03;;;3.28;;
49412;SDS011;35493;50.276;9.372;2023-06-04T14:33:20;5.60;;;3.40;;
49412;SDS011;35493;50.276;9.372;2023-06-04T14:35:47;6.60;;;3.72;;
49412;SDS011;35493;50.276;9.372;2023-06-04T14:38:16;5.15;;;3.17;;
49412;SDS011;35493;50.276;9.372;2023-06-04T14:40:43;5.63;;;3.95;;
49412;SDS011;35493;50.276;9.372;2023-06-04T14:43:10;5.05;;;3.45;;
49412;SDS011;35493;50.276;9.372;2023-06-04T14:45:37;6.03;;;3.45;;
49412;SDS011;35493;50.276;9.372;2023-06-04T14:48:04;5.28;;;3.40;;
49412;SDS011;35493;50.276;9.372;2023-06-04T14:50:31;5.38;;;3.30;;
49412;SDS011;35493;50.276;9.372;2023-06-04T14:52:59;6.05;;;3.30;;
49412;SDS011;35493;50.276;9.372;2023-06-04T14:55:27;5.47;;;3.55;;
49412;SDS011;35493;50.276;9.372;2023-06-04T14:57:54;4.68;;;3.22;;
49412;SDS011;35493;50.276;9.372;2023-06-04T15:00:20;5.90;;;3.85;;
49412;SDS011;35493;50.276;9.372;2023-06-04T15:02:47;6.50;;;3.30;;
49412;SDS011;35493;50.276;9.372;2023-06-04T15:05:14;4.55;;;3.40;;
49412;SDS011;35493;50.276;9.372;2023-06-04T15:07:41;4.07;;;3.03;;